Time;durP1;ratioP1;P1;durP2;ratioP2;P2;SDS_P1;SDS_P2;PMS_P1;PMS_P2;Temp;Humidity;BMP_temperature;BMP_pressure;BME280_temperature;BME280_humidity;BME280_pressure;Samples;Min_cycle;Max_cycle;Signal;HPM_P1;HPM_P2
2023/09/30 00:00:02;;;;;;;10.32;8.45;;;;;;;;;;2104273;28;20028;-65
2023/09/30 00:01:22;;;;;;;12.00;8.95;;;;;;;;;;2105529;28;20024;-66
2023/09/30 00:02:41;;;;;;;18.52;9.30;;;;;;;;;;2104646;28;20032;-66
2023/09/30 00:04:01;;;;;;;16.55;9.20;;;;;;;;;;2103926;28;20406;-66
2023/09/30 00:05:20;;;;;;;15.38;9.30;;;;;;;;;;2105598;28;20481;-65
2023/09/30 00:06:39;;;;;;;13.50;9.00;;;;;;;;;;2104847;28;20028;-66
2023/09/30 00:07:58;;;;;;;10.32;9.05;;;;;;;;;;2102736;28;20517;-67
2023/09/30 00:09:17;;;;;;;12.80;8.40;;;;;;;;;;2105138;28;20028;-71
2023/09/30 00:10:36;;;;;;;10.60;8.52;;;;;;;;;;2104711;28;20021;-65
2023/09/30 00:11:55;;;;;;;10.73;8.20;;;;;;;;;;2104476;28;20396;-66
2023/09/30 00:13:14;;;;;;;17.67;9.63;;;;;;;;;;2105762;28;20032;-66
2023/09/30 00:14:33;;;;;;;14.48;9.27;;;;;;;;;;2104905;28;20111;-65
2023/09/30 00:15:52;;;;;;;17.30;9.57;;;;;;;;;;2104758;28;20020;-66
2023/09/30 00:17:11;;;;;;;15.07;8.88;;;;;;;;;;2105891;28;20032;-66
2023/09/30 00:18:30;;;;;;;14.10;9.45;;;;;;;;;;2104469;28;20020;-67
2023/09/30 00:19:49;;;;;;;12.93;8.73;;;;;;;;;;2105062;28;20036;-65
2023/09/30 00:21:08;;;;;;;16.27;9.55;;;;;;;;;;2102941;28;20032;-65
2023/09/30 00:22:28;;;;;;;14.73;9.18;;;;;;;;;;2104753;28;20361;-66
2023/09/30 00:23:47;;;;;;;13.60;8.15;;;;;;;;;;2104540;28;20075;-66
2023/09/30 00:25:06;;;;;;;15.20;9.65;;;;;;;;;;2104741;28;20028;-66
2023/09/30 00:26:25;;;;;;;19.08;9.27;;;;;;;;;;2103798;28;20032;-66
2023/09/30 00:27:44;;;;;;;16.33;8.65;;;;;;;;;;2104254;28;20020;-66
2023/09/30 00:29:04;;;;;;;17.30;8.95;;;;;;;;;;2105736;28;20055;-66
2023/09/30 00:30:23;;;;;;;14.27;8.88;;;;;;;;;;2103283;28;20032;-65
2023/09/30 00:31:42;;;;;;;14.80;8.93;;;;;;;;;;2105745;28;20020;-66
2023/09/30 00:33:01;;;;;;;17.85;9.05;;;;;;;;;;2105376;28;20032;-66
2023/09/30 00:34:20;;;;;;;16.83;8.85;;;;;;;;;;2105592;28;20040;-66
2023/09/30 00:35:40;;;;;;;16.67;8.60;;;;;;;;;;2104178;28;20123;-68
2023/09/30 00:36:59;;;;;;;13.40;8.65;;;;;;;;;;2104572;28;20047;-66
2023/09/30 00:38:18;;;;;;;12.35;8.32;;;;;;;;;;2103399;28;20031;-68
2023/09/30 00:39:37;;;;;;;14.82;9.10;;;;;;;;;;2105123;28;20032;-67
2023/09/30 00:40:56;;;;;;;16.65;8.77;;;;;;;;;;2104085;28;20024;-66
2023/09/30 00:42:15;;;;;;;15.02;8.18;;;;;;;;;;2104691;28;20035;-66
2023/09/30 00:43:34;;;;;;;14.93;8.35;;;;;;;;;;2104719;28;20024;-66
2023/09/30 00:44:53;;;;;;;10.77;7.65;;;;;;;;;;2105430;28;20505;-66
2023/09/30 00:46:31;;;;;;;14.45;8.82;;;;;;;;;;2104148;28;20036;-66
2023/09/30 00:47:51;;;;;;;11.73;7.07;;;;;;;;;;2103374;28;20037;-66
2023/09/30 00:49:10;;;;;;;18.45;7.90;;;;;;;;;;2103245;28;20028;-67
2023/09/30 00:50:29;;;;;;;14.95;7.80;;;;;;;;;;2104321;28;20028;-66
2023/09/30 00:51:49;;;;;;;14.23;7.88;;;;;;;;;;2103479;28;20051;-66
2023/09/30 00:53:08;;;;;;;17.33;7.75;;;;;;;;;;2107374;28;20021;-66
2023/09/30 00:54:27;;;;;;;16.08;7.78;;;;;;;;;;2104636;28;20497;-66
2023/09/30 00:55:46;;;;;;;17.77;7.13;;;;;;;;;;2101631;28;20031;-66
2023/09/30 00:57:05;;;;;;;10.38;7.07;;;;;;;;;;2103769;28;20032;-67
2023/09/30 00:58:27;;;;;;;10.15;6.32;;;;;;;;;;2104578;28;20024;-66
2023/09/30 00:59:46;;;;;;;14.93;6.95;;;;;;;;;;2104845;28;20032;-66
2023/09/30 01:01:06;;;;;;;10.90;6.93;;;;;;;;;;2104783;28;20477;-66
2023/09/30 01:02:25;;;;;;;8.40;6.50;;;;;;;;;;2104114;28;20041;-66
2023/09/30 01:03:45;;;;;;;10.27;5.90;;;;;;;;;;2103528;28;20481;-68
2023/09/30 01:05:04;;;;;;;12.68;6.35;;;;;;;;;;2103455;28;20040;-67
2023/09/30 01:06:24;;;;;;;5.93;4.78;;;;;;;;;;2105199;28;20388;-67
2023/09/30 01:07:43;;;;;;;6.45;4.82;;;;;;;;;;2102693;28;20115;-66
2023/09/30 01:09:02;;;;;;;6.40;4.55;;;;;;;;;;2104933;28;20024;-66
2023/09/30 01:10:22;;;;;;;6.57;4.60;;;;;;;;;;2104011;28;20153;-66
2023/09/30 01:11:41;;;;;;;12.77;5.32;;;;;;;;;;2104064;28;20312;-66
2023/09/30 01:12:59;;;;;;;6.15;4.70;;;;;;;;;;2105647;28;20378;-66
2023/09/30 01:14:28;;;;;;;7.45;5.20;;;;;;;;;;2105390;28;20020;-66
2023/09/30 01:15:48;;;;;;;5.35;4.75;;;;;;;;;;2105149;28;20032;-66
2023/09/30 01:17:13;;;;;;;7.60;5.05;;;;;;;;;;2104446;28;20036;-66
2023/09/30 01:18:32;;;;;;;4.63;4.20;;;;;;;;;;2104792;28;20036;-66
2023/09/30 01:19:52;;;;;;;6.97;4.78;;;;;;;;;;2104958;28;20407;-67
2023/09/30 01:21:12;;;;;;;5.07;4.10;;;;;;;;;;2103807;28;20500;-66
2023/09/30 01:22:31;;;;;;;5.93;4.43;;;;;;;;;;2103723;28;20032;-67
2023/09/30 01:23:51;;;;;;;5.43;4.13;;;;;;;;;;2105616;28;20131;-66
2023/09/30 01:25:11;;;;;;;5.72;3.95;;;;;;;;;;2104398;28;20033;-66
2023/09/30 01:26:30;;;;;;;5.95;4.45;;;;;;;;;;2104718;28;20488;-66
2023/09/30 01:27:51;;;;;;;7.15;4.13;;;;;;;;;;2103709;28;20111;-66
2023/09/30 01:29:10;;;;;;;4.72;4.05;;;;;;;;;;2104116;28;20066;-66
2023/09/30 01:30:31;;;;;;;7.85;4.75;;;;;;;;;;2104644;28;20016;-66
2023/09/30 01:31:50;;;;;;;7.18;4.53;;;;;;;;;;2103837;28;20139;-66
2023/09/30 01:33:09;;;;;;;9.02;5.30;;;;;;;;;;2104409;28;20119;-66
2023/09/30 01:34:28;;;;;;;8.00;4.18;;;;;;;;;;2102061;28;20408;-66
2023/09/30 01:35:47;;;;;;;3.72;3.40;;;;;;;;;;2101864;28;20027;-66
2023/09/30 01:37:06;;;;;;;3.63;3.03;;;;;;;;;;2101341;28;20077;-65
2023/09/30 01:38:26;;;;;;;6.40;2.75;;;;;;;;;;2098725;28;20639;-66
2023/09/30 01:39:45;;;;;;;5.45;2.90;;;;;;;;;;2101761;28;20027;-65
2023/09/30 01:41:04;;;;;;;3.10;2.90;;;;;;;;;;2102307;28;20056;-66
2023/09/30 01:42:23;;;;;;;3.70;2.90;;;;;;;;;;2100742;28;20040;-66
2023/09/30 01:43:43;;;;;;;3.60;2.80;;;;;;;;;;2101593;28;20504;-65
2023/09/30 01:45:02;;;;;;;5.55;2.75;;;;;;;;;;2103046;28;20527;-66
2023/09/30 01:46:22;;;;;;;3.85;2.40;;;;;;;;;;2104392;28;20032;-66
2023/09/30 01:47:41;;;;;;;2.60;2.40;;;;;;;;;;2103298;28;20029;-66
2023/09/30 01:49:00;;;;;;;6.45;2.40;;;;;;;;;;2104588;28;20110;-65
2023/09/30 01:50:19;;;;;;;2.70;2.30;;;;;;;;;;2102829;28;20024;-66
2023/09/30 01:51:38;;;;;;;3.92;2.50;;;;;;;;;;2104615;28;20016;-66
2023/09/30 01:52:57;;;;;;;2.30;1.80;;;;;;;;;;2100697;28;20071;-66
2023/09/30 01:54:16;;;;;;;2.45;1.85;;;;;;;;;;2100185;28;20032;-68
2023/09/30 01:55:36;;;;;;;1.70;1.60;;;;;;;;;;2105773;28;20044;-66
2023/09/30 01:56:55;;;;;;;2.67;2.25;;;;;;;;;;2104690;28;20032;-66
2023/09/30 01:58:14;;;;;;;2.47;1.70;;;;;;;;;;2105910;28;20028;-66
2023/09/30 01:59:33;;;;;;;4.05;1.95;;;;;;;;;;2103580;28;20028;-65
2023/09/30 02:00:52;;;;;;;2.13;1.92;;;;;;;;;;2103956;28;20032;-65
2023/09/30 02:02:11;;;;;;;3.35;2.10;;;;;;;;;;2102628;28;20496;-65
2023/09/30 02:03:31;;;;;;;3.55;2.13;;;;;;;;;;2104894;28;20028;-66
2023/09/30 02:04:49;;;;;;;2.70;2.13;;;;;;;;;;2104700;28;20024;-66
2023/09/30 02:06:08;;;;;;;5.65;1.88;;;;;;;;;;2103616;28;20025;-65
2023/09/30 02:07:27;;;;;;;2.47;2.22;;;;;;;;;;2102699;28;20111;-66
2023/09/30 02:08:46;;;;;;;3.35;2.13;;;;;;;;;;2103312;28;20028;-68
2023/09/30 02:10:06;;;;;;;3.13;1.85;;;;;;;;;;2102731;28;20508;-66
2023/09/30 02:11:25;;;;;;;3.85;2.10;;;;;;;;;;2104510;28;20043;-66
2023/09/30 02:12:44;;;;;;;4.20;2.30;;;;;;;;;;2104509;28;20028;-65
2023/09/30 02:14:05;;;;;;;3.55;2.10;;;;;;;;;;2103865;28;20028;-66
2023/09/30 02:15:24;;;;;;;3.30;2.00;;;;;;;;;;2105690;28;20554;-66
2023/09/30 02:16:43;;;;;;;6.50;2.47;;;;;;;;;;2103868;28;20036;-66
2023/09/30 02:18:03;;;;;;;2.95;2.17;;;;;;;;;;2104419;28;20512;-66
2023/09/30 02:19:23;;;;;;;2.45;2.22;;;;;;;;;;2103542;28;20062;-66
2023/09/30 02:20:42;;;;;;;3.60;2.40;;;;;;;;;;2104131;28;20036;-66
2023/09/30 02:22:01;;;;;;;7.72;2.50;;;;;;;;;;2104222;28;20024;-66
2023/09/30 02:23:21;;;;;;;5.63;2.28;;;;;;;;;;2103291;28;20118;-67
2023/09/30 02:24:40;;;;;;;2.78;2.00;;;;;;;;;;2102071;28;20020;-66
2023/09/30 02:25:59;;;;;;;6.47;2.22;;;;;;;;;;2103137;28;20032;-66
2023/09/30 02:27:18;;;;;;;5.32;2.55;;;;;;;;;;2102324;28;20021;-65
2023/09/30 02:28:37;;;;;;;3.90;2.30;;;;;;;;;;2104057;28;20036;-66
2023/09/30 02:29:56;;;;;;;4.53;2.15;;;;;;;;;;2103033;28;20473;-66
2023/09/30 02:31:17;;;;;;;5.38;2.60;;;;;;;;;;2104310;28;20032;-65
2023/09/30 02:32:43;;;;;;;5.70;2.30;;;;;;;;;;2103447;28;20020;-66
2023/09/30 02:34:02;;;;;;;6.40;2.95;;;;;;;;;;2102687;28;20024;-66
2023/09/30 02:35:21;;;;;;;5.07;2.25;;;;;;;;;;2104670;28;20024;-66
2023/09/30 02:36:40;;;;;;;4.82;2.17;;;;;;;;;;2104036;28;20048;-66
2023/09/30 02:38:00;;;;;;;5.47;2.13;;;;;;;;;;2104005;28;20036;-66
2023/09/30 02:39:19;;;;;;;6.70;2.85;;;;;;;;;;2104691;28;20033;-66
2023/09/30 02:40:40;;;;;;;6.85;2.83;;;;;;;;;;2102680;28;20098;-66
2023/09/30 02:41:59;;;;;;;5.13;2.35;;;;;;;;;;2101308;28;20032;-66
2023/09/30 02:43:18;;;;;;;6.03;2.50;;;;;;;;;;2104136;28;20400;-66
2023/09/30 02:44:37;;;;;;;5.70;2.92;;;;;;;;;;2102095;28;20032;-66
2023/09/30 02:45:56;;;;;;;4.00;2.33;;;;;;;;;;2101912;28;20021;-66
2023/09/30 02:47:15;;;;;;;6.75;2.35;;;;;;;;;;2104044;28;20132;-66
2023/09/30 02:48:34;;;;;;;5.90;2.85;;;;;;;;;;2103106;28;20029;-66
2023/09/30 02:49:52;;;;;;;6.65;2.88;;;;;;;;;;2103793;28;20098;-66
2023/09/30 02:51:11;;;;;;;5.03;3.08;;;;;;;;;;2103545;28;20083;-66
2023/09/30 02:52:31;;;;;;;6.25;2.47;;;;;;;;;;2104247;28;20025;-66
2023/09/30 02:53:50;;;;;;;5.07;2.75;;;;;;;;;;2103148;28;20032;-66
2023/09/30 02:55:09;;;;;;;5.45;2.50;;;;;;;;;;2105307;28;20501;-66
2023/09/30 02:56:30;;;;;;;5.40;2.78;;;;;;;;;;2103942;28;20032;-66
2023/09/30 02:57:49;;;;;;;4.82;2.92;;;;;;;;;;2102546;28;20040;-66
2023/09/30 02:59:08;;;;;;;8.57;3.42;;;;;;;;;;2103539;28;20036;-66
2023/09/30 03:00:27;;;;;;;7.03;2.67;;;;;;;;;;2104263;28;20111;-66
2023/09/30 03:01:46;;;;;;;7.47;3.03;;;;;;;;;;2102575;28;20032;-66
2023/09/30 03:03:06;;;;;;;8.00;2.97;;;;;;;;;;2103410;28;20438;-67
2023/09/30 03:04:28;;;;;;;5.55;3.03;;;;;;;;;;2104482;28;20043;-66
2023/09/30 03:05:48;;;;;;;5.63;2.63;;;;;;;;;;2103642;28;20490;-67
2023/09/30 03:07:08;;;;;;;4.93;2.88;;;;;;;;;;2103517;28;20421;-66
2023/09/30 03:08:27;;;;;;;6.00;2.65;;;;;;;;;;2103987;28;20036;-67
2023/09/30 03:09:46;;;;;;;6.55;2.80;;;;;;;;;;2102808;28;20024;-67
2023/09/30 03:11:06;;;;;;;6.68;2.83;;;;;;;;;;2104367;28;20020;-67
2023/09/30 03:12:25;;;;;;;7.50;2.92;;;;;;;;;;2103404;28;20024;-66
2023/09/30 03:13:44;;;;;;;5.18;2.42;;;;;;;;;;2104459;28;20028;-67
2023/09/30 03:15:04;;;;;;;7.50;2.70;;;;;;;;;;2103603;28;20484;-67
2023/09/30 03:16:24;;;;;;;7.43;2.95;;;;;;;;;;2105236;28;20028;-67
2023/09/30 03:17:43;;;;;;;6.97;2.72;;;;;;;;;;2104427;28;20032;-68
2023/09/30 03:19:07;;;;;;;6.53;3.00;;;;;;;;;;2103201;28;20028;-67
2023/09/30 03:20:26;;;;;;;6.65;2.85;;;;;;;;;;2101880;28;20020;-67
2023/09/30 03:21:45;;;;;;;9.15;2.88;;;;;;;;;;2103009;28;20603;-67
2023/09/30 03:23:04;;;;;;;5.32;2.92;;;;;;;;;;2104046;28;20036;-67
2023/09/30 03:24:24;;;;;;;8.48;3.00;;;;;;;;;;2104155;28;20024;-66
2023/09/30 03:25:43;;;;;;;5.85;2.63;;;;;;;;;;2103092;28;20488;-67
2023/09/30 03:27:02;;;;;;;6.95;3.03;;;;;;;;;;2103247;28;20029;-66
2023/09/30 03:28:21;;;;;;;9.75;3.35;;;;;;;;;;2102512;28;20095;-67
2023/09/30 03:29:40;;;;;;;5.65;2.70;;;;;;;;;;2098180;28;20025;-67
2023/09/30 03:30:59;;;;;;;6.45;2.30;;;;;;;;;;2096628;28;20060;-67
2023/09/30 03:32:19;;;;;;;9.32;3.35;;;;;;;;;;2105171;28;20020;-66
2023/09/30 03:33:38;;;;;;;6.47;2.60;;;;;;;;;;2106286;28;20525;-67
2023/09/30 03:34:59;;;;;;;10.90;2.72;;;;;;;;;;2103762;28;20032;-67
2023/09/30 03:36:18;;;;;;;4.57;2.42;;;;;;;;;;2105594;28;20032;-68
2023/09/30 03:37:37;;;;;;;8.23;2.70;;;;;;;;;;2105586;28;20032;-68
2023/09/30 03:38:59;;;;;;;9.70;3.20;;;;;;;;;;2104520;28;20024;-67
2023/09/30 03:40:27;;;;;;;6.40;2.92;;;;;;;;;;2104492;28;20024;-67
2023/09/30 03:41:46;;;;;;;7.55;2.78;;;;;;;;;;2105251;28;20432;-67
2023/09/30 03:43:05;;;;;;;5.38;2.53;;;;;;;;;;2105821;28;20036;-67
2023/09/30 03:44:24;;;;;;;5.90;2.50;;;;;;;;;;2105848;28;20106;-67
2023/09/30 03:45:43;;;;;;;5.38;2.30;;;;;;;;;;2105172;28;20143;-66
2023/09/30 03:47:02;;;;;;;8.70;2.80;;;;;;;;;;2105071;28;20012;-66
2023/09/30 03:48:21;;;;;;;8.30;3.25;;;;;;;;;;2104108;28;20033;-66
2023/09/30 03:49:42;;;;;;;8.18;3.00;;;;;;;;;;2104687;28;20111;-66
2023/09/30 03:51:08;;;;;;;6.45;3.05;;;;;;;;;;2105438;28;20063;-66
2023/09/30 03:52:28;;;;;;;5.15;2.90;;;;;;;;;;2105114;28;20040;-67
2023/09/30 03:53:47;;;;;;;6.80;3.10;;;;;;;;;;2103553;28;20036;-67
2023/09/30 03:55:06;;;;;;;8.32;2.92;;;;;;;;;;2104132;28;20032;-67
2023/09/30 03:56:25;;;;;;;13.52;3.55;;;;;;;;;;2105023;28;20099;-66
2023/09/30 03:57:47;;;;;;;9.93;3.25;;;;;;;;;;2106576;28;20107;-67
2023/09/30 03:59:08;;;;;;;9.88;3.20;;;;;;;;;;2105346;28;20024;-67
2023/09/30 04:00:28;;;;;;;8.88;3.78;;;;;;;;;;2102336;28;20032;-66
2023/09/30 04:01:47;;;;;;;6.20;3.20;;;;;;;;;;2103213;28;20055;-67
2023/09/30 04:03:06;;;;;;;7.50;3.08;;;;;;;;;;2104702;28;20028;-67
2023/09/30 04:04:25;;;;;;;7.25;3.20;;;;;;;;;;2104513;28;20053;-67
2023/09/30 04:05:44;;;;;;;6.07;3.17;;;;;;;;;;2104179;28;20107;-67
2023/09/30 04:07:05;;;;;;;9.93;3.88;;;;;;;;;;2103368;28;20020;-67
2023/09/30 04:08:24;;;;;;;8.75;3.05;;;;;;;;;;2105364;28;20070;-66
2023/09/30 04:09:43;;;;;;;9.93;3.65;;;;;;;;;;2100516;28;20024;-67
2023/09/30 04:11:03;;;;;;;8.18;3.22;;;;;;;;;;2104081;28;20020;-66
2023/09/30 04:12:25;;;;;;;8.95;3.47;;;;;;;;;;2104603;28;20032;-67
2023/09/30 04:13:44;;;;;;;8.07;3.17;;;;;;;;;;2104219;28;20028;-67
2023/09/30 04:15:05;;;;;;;11.98;3.70;;;;;;;;;;2104179;28;20032;-66
2023/09/30 04:16:28;;;;;;;8.95;3.30;;;;;;;;;;2103680;28;20054;-66
2023/09/30 04:17:52;;;;;;;10.88;4.00;;;;;;;;;;2105667;28;20095;-66
2023/09/30 04:19:11;;;;;;;10.05;3.22;;;;;;;;;;2105275;28;21913;-66
2023/09/30 04:20:30;;;;;;;8.23;3.45;;;;;;;;;;2101179;28;20472;-67
2023/09/30 04:21:49;;;;;;;10.15;3.97;;;;;;;;;;2101759;28;20028;-66
2023/09/30 04:23:09;;;;;;;12.20;3.78;;;;;;;;;;2103819;28;20028;-66
2023/09/30 04:24:29;;;;;;;7.32;3.22;;;;;;;;;;2097397;28;20041;-66
2023/09/30 04:25:49;;;;;;;9.38;3.60;;;;;;;;;;2100578;28;20024;-66
2023/09/30 04:27:08;;;;;;;11.55;3.80;;;;;;;;;;2102035;28;20513;-67
2023/09/30 04:28:27;;;;;;;14.02;4.22;;;;;;;;;;2102053;28;20099;-66
2023/09/30 04:29:46;;;;;;;9.32;3.92;;;;;;;;;;2101720;28;20246;-66
2023/09/30 04:31:07;;;;;;;8.38;3.67;;;;;;;;;;2102285;28;20056;-67
2023/09/30 04:32:27;;;;;;;12.18;3.78;;;;;;;;;;2104402;28;20020;-66
2023/09/30 04:33:46;;;;;;;11.80;4.05;;;;;;;;;;2103954;28;20032;-68
2023/09/30 04:35:05;;;;;;;7.80;3.50;;;;;;;;;;2103076;28;20027;-67
2023/09/30 04:36:24;;;;;;;14.18;4.25;;;;;;;;;;2102637;28;21330;-67
2023/09/30 04:37:43;;;;;;;12.50;4.18;;;;;;;;;;2104560;28;20122;-67
2023/09/30 04:39:03;;;;;;;12.65;4.05;;;;;;;;;;2105419;28;20507;-67
2023/09/30 04:40:21;;;;;;;13.70;4.10;;;;;;;;;;2104850;28;20044;-66
2023/09/30 04:41:43;;;;;;;13.57;3.60;;;;;;;;;;2104871;28;20020;-67
2023/09/30 04:43:03;;;;;;;7.82;3.75;;;;;;;;;;2105199;28;20024;-67
2023/09/30 04:44:22;;;;;;;9.32;4.13;;;;;;;;;;2104594;28;20593;-66
2023/09/30 04:45:41;;;;;;;14.05;3.72;;;;;;;;;;2105605;28;20031;-67
2023/09/30 04:47:00;;;;;;;10.18;3.47;;;;;;;;;;2104752;28;20509;-67
2023/09/30 04:48:19;;;;;;;14.38;4.10;;;;;;;;;;2102796;28;20036;-69
2023/09/30 04:49:38;;;;;;;10.10;4.00;;;;;;;;;;2104078;28;20033;-67
2023/09/30 04:50:57;;;;;;;11.48;4.25;;;;;;;;;;2104127;28;20021;-68
2023/09/30 04:52:16;;;;;;;9.85;3.55;;;;;;;;;;2103575;28;20031;-67
2023/09/30 04:53:35;;;;;;;15.70;4.45;;;;;;;;;;2103483;28;20496;-67
2023/09/30 04:54:54;;;;;;;15.27;3.75;;;;;;;;;;2104647;28;20032;-66
2023/09/30 04:56:13;;;;;;;10.70;3.83;;;;;;;;;;2104281;28;20036;-66
2023/09/30 04:57:32;;;;;;;10.25;4.05;;;;;;;;;;2105281;28;20099;-66
2023/09/30 04:58:51;;;;;;;13.60;4.18;;;;;;;;;;2103422;28;20051;-66
2023/09/30 05:00:11;;;;;;;13.75;4.10;;;;;;;;;;2104401;28;20032;-66
2023/09/30 05:01:31;;;;;;;12.00;4.05;;;;;;;;;;2105184;28;20122;-66
2023/09/30 05:02:52;;;;;;;9.32;3.90;;;;;;;;;;2105563;28;20035;-66
2023/09/30 05:04:10;;;;;;;17.92;4.80;;;;;;;;;;2105601;28;20458;-66
2023/09/30 05:05:30;;;;;;;13.63;4.28;;;;;;;;;;2104717;28;20095;-67
2023/09/30 05:06:49;;;;;;;14.75;4.70;;;;;;;;;;2102292;28;20103;-66
2023/09/30 05:08:10;;;;;;;14.02;5.05;;;;;;;;;;2104883;28;20031;-67
2023/09/30 05:09:29;;;;;;;12.15;4.32;;;;;;;;;;2105320;28;20036;-66
2023/09/30 05:10:48;;;;;;;14.05;4.22;;;;;;;;;;2103470;28;20024;-66
2023/09/30 05:12:07;;;;;;;9.80;4.22;;;;;;;;;;2104975;28;20488;-67
2023/09/30 05:13:26;;;;;;;10.50;4.38;;;;;;;;;;2105882;28;20048;-66
2023/09/30 05:14:44;;;;;;;12.90;4.50;;;;;;;;;;2104186;28;20638;-67
2023/09/30 05:16:04;;;;;;;9.45;3.47;;;;;;;;;;2104225;28;20027;-66
2023/09/30 05:17:22;;;;;;;15.02;4.22;;;;;;;;;;2101853;28;20024;-66
2023/09/30 05:18:41;;;;;;;12.90;4.43;;;;;;;;;;2103914;28;20036;-66
2023/09/30 05:20:01;;;;;;;14.32;3.95;;;;;;;;;;2104356;28;20016;-66
2023/09/30 05:21:21;;;;;;;14.32;4.25;;;;;;;;;;2104994;28;20036;-66
2023/09/30 05:22:45;;;;;;;14.07;3.97;;;;;;;;;;2104934;28;20028;-66
2023/09/30 05:24:05;;;;;;;12.85;3.88;;;;;;;;;;2103379;28;20393;-66
2023/09/30 05:25:26;;;;;;;11.00;3.67;;;;;;;;;;2105514;28;20442;-67
2023/09/30 05:26:45;;;;;;;11.60;3.83;;;;;;;;;;2103837;28;20473;-66
2023/09/30 05:28:06;;;;;;;12.25;4.28;;;;;;;;;;2105200;28;20016;-66
2023/09/30 05:29:25;;;;;;;9.52;3.60;;;;;;;;;;2104793;28;20024;-68
2023/09/30 05:30:45;;;;;;;10.80;3.50;;;;;;;;;;2104041;28;20012;-67
2023/09/30 05:32:04;;;;;;;17.58;4.22;;;;;;;;;;2103615;28;20544;-67
2023/09/30 05:33:23;;;;;;;10.50;3.97;;;;;;;;;;2103956;28;20032;-66
2023/09/30 05:34:43;;;;;;;11.80;3.67;;;;;;;;;;2104652;28;20036;-66
2023/09/30 05:36:03;;;;;;;17.63;4.47;;;;;;;;;;2104017;28;20040;-67
2023/09/30 05:37:22;;;;;;;12.23;4.00;;;;;;;;;;2104167;28;20127;-67
2023/09/30 05:38:41;;;;;;;13.38;3.65;;;;;;;;;;2102994;28;20032;-66
2023/09/30 05:40:03;;;;;;;12.20;3.45;;;;;;;;;;2104297;28;20028;-66
2023/09/30 05:41:22;;;;;;;11.02;3.88;;;;;;;;;;2100936;28;20028;-66
2023/09/30 05:42:43;;;;;;;11.23;3.85;;;;;;;;;;2105618;28;20463;-67
2023/09/30 05:44:02;;;;;;;12.90;3.97;;;;;;;;;;2104384;28;20111;-66
2023/09/30 05:45:26;;;;;;;16.05;4.07;;;;;;;;;;2104974;28;20032;-66
2023/09/30 05:46:45;;;;;;;17.77;3.65;;;;;;;;;;2103486;28;20872;-66
2023/09/30 05:48:07;;;;;;;10.30;3.42;;;;;;;;;;2103971;28;20481;-66
2023/09/30 05:49:26;;;;;;;12.30;3.40;;;;;;;;;;2104193;28;20028;-67
2023/09/30 05:50:46;;;;;;;13.25;4.10;;;;;;;;;;2105187;28;20024;-66
2023/09/30 05:52:05;;;;;;;11.35;3.90;;;;;;;;;;2104322;28;20032;-66
2023/09/30 05:53:24;;;;;;;11.82;3.80;;;;;;;;;;2103551;28;20020;-66
2023/09/30 05:54:44;;;;;;;17.55;4.18;;;;;;;;;;2102427;28;20033;-66
2023/09/30 05:56:03;;;;;;;10.85;3.63;;;;;;;;;;2104899;28;20421;-66
2023/09/30 05:57:23;;;;;;;14.43;3.70;;;;;;;;;;2105397;28;20095;-66
2023/09/30 05:58:42;;;;;;;10.70;3.45;;;;;;;;;;2101929;28;20024;-66
2023/09/30 06:00:06;;;;;;;17.00;3.63;;;;;;;;;;2101524;28;20032;-66
2023/09/30 06:01:25;;;;;;;17.98;4.03;;;;;;;;;;2103477;28;20206;-66
2023/09/30 06:02:44;;;;;;;9.82;3.85;;;;;;;;;;2105077;28;20024;-66
2023/09/30 06:04:04;;;;;;;16.20;4.40;;;;;;;;;;2102054;28;20024;-66
2023/09/30 06:05:25;;;;;;;15.93;3.60;;;;;;;;;;2104654;28;20020;-66
2023/09/30 06:06:45;;;;;;;13.77;3.90;;;;;;;;;;2103975;28;20111;-67
2023/09/30 06:08:04;;;;;;;16.25;4.30;;;;;;;;;;2104614;28;20020;-66
2023/09/30 06:09:25;;;;;;;16.23;4.32;;;;;;;;;;2102611;28;20697;-66
2023/09/30 06:10:43;;;;;;;15.23;3.83;;;;;;;;;;2103841;28;20023;-66
2023/09/30 06:12:06;;;;;;;11.63;3.53;;;;;;;;;;2102995;28;20107;-66
2023/09/30 06:13:27;;;;;;;15.18;3.40;;;;;;;;;;2103604;28;20032;-66
2023/09/30 06:14:46;;;;;;;11.90;3.22;;;;;;;;;;2104556;28;20020;-66
2023/09/30 06:16:06;;;;;;;15.77;4.00;;;;;;;;;;2103433;28;20450;-67
2023/09/30 06:17:25;;;;;;;8.65;3.15;;;;;;;;;;2103995;28;20020;-66
2023/09/30 06:18:45;;;;;;;12.27;3.45;;;;;;;;;;2104248;28;20388;-65
2023/09/30 06:20:15;;;;;;;12.23;3.42;;;;;;;;;;2103940;28;20751;-66
2023/09/30 06:21:35;;;;;;;8.80;2.85;;;;;;;;;;2098406;28;20029;-66
2023/09/30 06:22:53;;;;;;;11.82;3.53;;;;;;;;;;2096987;28;20496;-66
2023/09/30 06:24:12;;;;;;;12.32;3.83;;;;;;;;;;2098600;28;20497;-66
2023/09/30 06:25:33;;;;;;;14.50;3.63;;;;;;;;;;2103672;28;20020;-66
2023/09/30 06:26:52;;;;;;;11.15;3.63;;;;;;;;;;2103581;28;20028;-65
2023/09/30 06:28:13;;;;;;;13.02;3.30;;;;;;;;;;2105363;28;20028;-66
2023/09/30 06:29:33;;;;;;;14.90;3.85;;;;;;;;;;2105224;28;20028;-66
2023/09/30 06:30:52;;;;;;;13.52;3.83;;;;;;;;;;2103567;28;20424;-65
2023/09/30 06:32:11;;;;;;;17.45;3.17;;;;;;;;;;2103869;28;20534;-65
2023/09/30 06:33:30;;;;;;;11.10;3.40;;;;;;;;;;2103520;28;20032;-65
2023/09/30 06:34:49;;;;;;;13.07;3.15;;;;;;;;;;2104697;28;20032;-65
2023/09/30 06:36:13;;;;;;;9.35;3.40;;;;;;;;;;2103350;28;20024;-66
2023/09/30 06:37:32;;;;;;;13.90;3.75;;;;;;;;;;2086618;28;20505;-66
2023/09/30 06:38:52;;;;;;;14.88;3.58;;;;;;;;;;2086453;28;20021;-66
2023/09/30 06:40:14;;;;;;;14.35;3.35;;;;;;;;;;2086760;28;20626;-65
2023/09/30 06:41:33;;;;;;;8.93;3.23;;;;;;;;;;2085123;28;20025;-66
2023/09/30 06:42:52;;;;;;;12.60;3.33;;;;;;;;;;2086553;28;20227;-65
2023/09/30 06:44:11;;;;;;;11.30;3.15;;;;;;;;;;2086953;28;20176;-65
2023/09/30 06:45:30;;;;;;;13.05;3.70;;;;;;;;;;2086027;28;20033;-65
2023/09/30 06:46:50;;;;;;;15.25;4.05;;;;;;;;;;2084191;28;20017;-65
2023/09/30 06:48:12;;;;;;;15.45;3.83;;;;;;;;;;2083819;28;20033;-65
2023/09/30 06:49:34;;;;;;;14.55;3.63;;;;;;;;;;2086332;28;20021;-65
2023/09/30 06:50:52;;;;;;;13.85;3.63;;;;;;;;;;2088612;28;20025;-65
2023/09/30 06:52:12;;;;;;;16.35;3.47;;;;;;;;;;2086745;28;20128;-65
2023/09/30 06:53:31;;;;;;;15.82;3.92;;;;;;;;;;2086527;28;20033;-68
2023/09/30 06:54:51;;;;;;;13.15;3.05;;;;;;;;;;2086900;28;20017;-65
2023/09/30 06:56:12;;;;;;;10.60;3.00;;;;;;;;;;2085367;28;20029;-65
2023/09/30 06:57:32;;;;;;;15.48;3.55;;;;;;;;;;2087660;28;20029;-66
2023/09/30 06:58:51;;;;;;;10.40;2.85;;;;;;;;;;2086522;28;20056;-64
2023/09/30 07:00:11;;;;;;;10.77;2.90;;;;;;;;;;2086404;28;20029;-64
2023/09/30 07:01:30;;;;;;;14.30;3.60;;;;;;;;;;2085663;28;20028;-64
2023/09/30 07:02:49;;;;;;;11.32;2.90;;;;;;;;;;2086667;28;20127;-64
2023/09/30 07:04:09;;;;;;;11.23;3.20;;;;;;;;;;2086308;28;20506;-66
2023/09/30 07:05:29;;;;;;;10.35;2.80;;;;;;;;;;2087946;28;20057;-64
2023/09/30 07:06:48;;;;;;;14.00;3.47;;;;;;;;;;2089223;28;20017;-64
2023/09/30 07:08:07;;;;;;;10.65;3.15;;;;;;;;;;2088006;28;20033;-64
2023/09/30 07:09:26;;;;;;;13.07;3.00;;;;;;;;;;2087317;28;20036;-64
2023/09/30 07:10:52;;;;;;;11.07;3.13;;;;;;;;;;2088228;28;20398;-64
2023/09/30 07:12:12;;;;;;;11.95;3.40;;;;;;;;;;2089437;28;20033;-66
2023/09/30 07:13:31;;;;;;;12.25;3.08;;;;;;;;;;2089760;28;20409;-64
2023/09/30 07:14:50;;;;;;;19.25;3.70;;;;;;;;;;2088741;28;20028;-64
2023/09/30 07:16:10;;;;;;;10.30;3.72;;;;;;;;;;2087615;28;20038;-64
2023/09/30 07:17:29;;;;;;;13.32;3.67;;;;;;;;;;2089494;28;20025;-64
2023/09/30 07:18:48;;;;;;;12.13;2.70;;;;;;;;;;2089186;28;20033;-66
2023/09/30 07:20:09;;;;;;;14.15;3.45;;;;;;;;;;2088333;28;20046;-65
2023/09/30 07:21:28;;;;;;;14.63;3.35;;;;;;;;;;2087539;28;20033;-64
2023/09/30 07:22:47;;;;;;;15.48;3.92;;;;;;;;;;2088066;28;20029;-64
2023/09/30 07:24:06;;;;;;;14.00;3.45;;;;;;;;;;2086527;28;20033;-64
2023/09/30 07:25:25;;;;;;;16.40;3.90;;;;;;;;;;2089412;28;20033;-64
2023/09/30 07:26:44;;;;;;;16.20;4.03;;;;;;;;;;2088883;28;20020;-64
2023/09/30 07:28:03;;;;;;;9.48;2.95;;;;;;;;;;2087461;28;20032;-64
2023/09/30 07:29:23;;;;;;;11.93;3.50;;;;;;;;;;2088216;28;20557;-64
2023/09/30 07:30:41;;;;;;;13.05;3.78;;;;;;;;;;2086854;28;20236;-64
2023/09/30 07:32:01;;;;;;;10.82;3.33;;;;;;;;;;2087935;28;20052;-64
2023/09/30 07:33:20;;;;;;;13.57;3.05;;;;;;;;;;2087304;28;20595;-64
2023/09/30 07:34:39;;;;;;;10.30;3.05;;;;;;;;;;2087576;28;20112;-64
2023/09/30 07:35:58;;;;;;;13.35;3.08;;;;;;;;;;2088405;28;20115;-65
2023/09/30 07:37:18;;;;;;;10.23;3.03;;;;;;;;;;2104415;28;20080;-64
2023/09/30 07:38:37;;;;;;;13.15;2.95;;;;;;;;;;2103697;28;20024;-64
2023/09/30 07:39:56;;;;;;;13.48;3.50;;;;;;;;;;2106627;28;20036;-64
2023/09/30 07:41:15;;;;;;;17.98;3.70;;;;;;;;;;2104452;28;20036;-64
2023/09/30 07:42:34;;;;;;;11.75;3.03;;;;;;;;;;2105545;28;20028;-64
2023/09/30 07:43:53;;;;;;;14.57;3.35;;;;;;;;;;2105004;28;20029;-64
2023/09/30 07:45:16;;;;;;;13.68;3.80;;;;;;;;;;2102935;28;20548;-65
2023/09/30 07:46:35;;;;;;;;;;;;;;;;;;2105030;28;20210;-65
2023/09/30 07:47:55;;;;;;;11.82;3.03;;;;;;;;;;2103851;28;19912;-65
2023/09/30 07:49:13;;;;;;;12.18;2.95;;;;;;;;;;2104882;28;20048;-65
2023/09/30 07:50:33;;;;;;;13.27;3.38;;;;;;;;;;2104676;28;20031;-64
2023/09/30 07:51:52;;;;;;;13.32;3.20;;;;;;;;;;2104880;28;20032;-65
2023/09/30 07:53:12;;;;;;;14.57;2.78;;;;;;;;;;2104121;28;20497;-65